sensor_id;sensor_type;location;lat;lon;timestamp;pressure;altitude;pressure_sealevel;temperature;humidity
69911;BME280;63555;49.920;17.868;2022-11-23T00:00:23;97547.97;;;0.16;85.49
69911;BME280;63555;49.920;17.868;2022-11-23T00:03:01;97547.97;;;0.16;85.55
69911;BME280;63555;49.920;17.868;2022-11-23T00:05:28;97547.88;;;0.17;85.77
69911;BME280;63555;49.920;17.868;2022-11-23T00:07:53;97552.97;;;0.19;85.67
69911;BME280;63555;49.920;17.868;2022-11-23T00:10:19;97556.41;;;0.19;85.53
69911;BME280;63555;49.920;17.868;2022-11-23T00:12:45;97562.34;;;0.21;85.51
69911;BME280;63555;49.920;17.868;2022-11-23T00:15:12;97560.59;;;0.22;85.62
69911;BME280;63555;49.920;17.868;2022-11-23T00:17:38;97562.34;;;0.21;85.56
69911;BME280;63555;49.920;17.868;2022-11-23T00:20:05;97561.50;;;0.21;85.81
69911;BME280;63555;49.920;17.868;2022-11-23T00:22:30;97569.28;;;0.21;85.63
69911;BME280;63555;49.920;17.868;2022-11-23T00:24:56;97558.06;;;0.20;85.97
69911;BME280;63555;49.920;17.868;2022-11-23T00:27:21;97558.06;;;0.20;85.73
69911;BME280;63555;49.920;17.868;2022-11-23T00:29:46;97564.94;;;0.21;85.67
69911;BME280;63555;49.920;17.868;2022-11-23T00:32:12;97566.59;;;0.22;85.57
69911;BME280;63555;49.920;17.868;2022-11-23T00:34:37;97563.09;;;0.23;85.57
69911;BME280;63555;49.920;17.868;2022-11-23T00:37:02;97555.31;;;0.23;85.53
69911;BME280;63555;49.920;17.868;2022-11-23T00:39:28;97563.09;;;0.23;85.19
69911;BME280;63555;49.920;17.868;2022-11-23T00:41:53;97559.66;;;0.23;85.42
69911;BME280;63555;49.920;17.868;2022-11-23T00:44:19;97563.09;;;0.23;85.62
69911;BME280;63555;49.920;17.868;2022-11-23T00:46:44;97559.59;;;0.24;85.52
69911;BME280;63555;49.920;17.868;2022-11-23T00:49:09;97557.00;;;0.24;85.47
69911;BME280;63555;49.920;17.868;2022-11-23T00:51:36;97552.66;;;0.25;85.63
69911;BME280;63555;49.920;17.868;2022-11-23T00:54:03;97550.06;;;0.25;85.73
69911;BME280;63555;49.920;17.868;2022-11-23T00:56:30;97546.47;;;0.27;85.64
69911;BME280;63555;49.920;17.868;2022-11-23T00:58:57;97547.28;;;0.28;85.70
69911;BME280;63555;49.920;17.868;2022-11-23T01:01:24;97544.63;;;0.29;85.58
69911;BME280;63555;49.920;17.868;2022-11-23T01:03:55;97546.28;;;0.30;85.60
69911;BME280;63555;49.920;17.868;2022-11-23T01:06:25;97545.47;;;0.30;85.35
69911;BME280;63555;49.920;17.868;2022-11-23T01:08:59;97551.47;;;0.30;85.70
69911;BME280;63555;49.920;17.868;2022-11-23T01:11:28;97554.00;;;0.32;85.46
69911;BME280;63555;49.920;17.868;2022-11-23T01:13:53;97546.22;;;0.32;85.61
69911;BME280;63555;49.920;17.868;2022-11-23T01:16:22;97538.44;;;0.32;85.77
69911;BME280;63555;49.920;17.868;2022-11-23T01:18:52;97535.84;;;0.32;85.48
69911;BME280;63555;49.920;17.868;2022-11-23T01:21:17;97536.75;;;0.31;85.53
69911;BME280;63555;49.920;17.868;2022-11-23T01:23:42;97539.44;;;0.29;85.51
69911;BME280;63555;49.920;17.868;2022-11-23T01:26:09;97551.66;;;0.27;85.54
69911;BME280;63555;49.920;17.868;2022-11-23T01:28:36;97548.22;;;0.27;85.40
69911;BME280;63555;49.920;17.868;2022-11-23T01:31:06;97549.06;;;0.27;85.59
69911;BME280;63555;49.920;17.868;2022-11-23T01:33:32;97550.81;;;0.27;85.83
69911;BME280;63555;49.920;17.868;2022-11-23T01:35:58;97568.03;;;0.28;85.62
69911;BME280;63555;49.920;17.868;2022-11-23T01:38:23;97556.75;;;0.29;85.54
69911;BME280;63555;49.920;17.868;2022-11-23T01:40:49;97555.00;;;0.29;85.72
69911;BME280;63555;49.920;17.868;2022-11-23T01:43:16;97561.84;;;0.30;85.65
69911;BME280;63555;49.920;17.868;2022-11-23T01:45:55;97560.94;;;0.31;85.71
69911;BME280;63555;49.920;17.868;2022-11-23T01:48:25;97564.19;;;0.35;85.78
69911;BME280;63555;49.920;17.868;2022-11-23T01:50:52;97568.38;;;0.38;85.88
69911;BME280;63555;49.920;17.868;2022-11-23T01:53:19;97567.28;;;0.42;85.65
69911;BME280;63555;49.920;17.868;2022-11-23T01:55:46;97567.13;;;0.45;85.68
69911;BME280;63555;49.920;17.868;2022-11-23T01:58:15;97573.91;;;0.47;85.53
69911;BME280;63555;49.920;17.868;2022-11-23T02:00:42;97569.47;;;0.49;85.28
69911;BME280;63555;49.920;17.868;2022-11-23T02:03:08;97566.78;;;0.51;85.57
69911;BME280;63555;49.920;17.868;2022-11-23T02:05:36;97568.47;;;0.52;85.54
69911;BME280;63555;49.920;17.868;2022-11-23T02:08:05;97564.03;;;0.54;85.37
69911;BME280;63555;49.920;17.868;2022-11-23T02:10:32;97563.19;;;0.53;85.43
69911;BME280;63555;49.920;17.868;2022-11-23T02:13:01;97564.03;;;0.54;85.30
69911;BME280;63555;49.920;17.868;2022-11-23T02:15:27;97563.94;;;0.55;85.60
69911;BME280;63555;49.920;17.868;2022-11-23T02:17:52;97562.94;;;0.58;85.53
69911;BME280;63555;49.920;17.868;2022-11-23T02:20:18;97562.88;;;0.59;85.41
69911;BME280;63555;49.920;17.868;2022-11-23T02:25:27;97554.41;;;0.56;85.13
69911;BME280;63555;49.920;17.868;2022-11-23T02:27:58;97558.84;;;0.54;85.08
69911;BME280;63555;49.920;17.868;2022-11-23T02:30:24;97554.66;;;0.51;85.08
69911;BME280;63555;49.920;17.868;2022-11-23T02:32:49;97547.81;;;0.50;85.25
69911;BME280;63555;49.920;17.868;2022-11-23T02:35:15;97550.56;;;0.47;85.11
69911;BME280;63555;49.920;17.868;2022-11-23T02:37:40;97555.84;;;0.46;85.41
69911;BME280;63555;49.920;17.868;2022-11-23T02:40:15;97558.50;;;0.44;85.15
69911;BME280;63555;49.920;17.868;2022-11-23T02:42:46;97543.88;;;0.43;85.35
69911;BME280;63555;49.920;17.868;2022-11-23T02:47:50;97552.66;;;0.41;85.11
69911;BME280;63555;49.920;17.868;2022-11-23T02:50:16;97555.16;;;0.42;85.63
69911;BME280;63555;49.920;17.868;2022-11-23T02:52:41;97562.94;;;0.42;85.36
69911;BME280;63555;49.920;17.868;2022-11-23T02:55:07;97561.19;;;0.43;85.35
69911;BME280;63555;49.920;17.868;2022-11-23T02:57:32;97558.69;;;0.41;85.48
69911;BME280;63555;49.920;17.868;2022-11-23T02:59:58;97560.44;;;0.41;85.32
69911;BME280;63555;49.920;17.868;2022-11-23T03:02:23;97556.16;;;0.40;85.23
69911;BME280;63555;49.920;17.868;2022-11-23T03:04:48;97562.19;;;0.40;85.30
69911;BME280;63555;49.920;17.868;2022-11-23T03:07:14;97557.94;;;0.39;85.19
69911;BME280;63555;49.920;17.868;2022-11-23T03:09:39;97564.03;;;0.38;85.13
69911;BME280;63555;49.920;17.868;2022-11-23T03:12:04;97553.66;;;0.38;85.32
69911;BME280;63555;49.920;17.868;2022-11-23T03:14:30;97554.56;;;0.37;85.39
69911;BME280;63555;49.920;17.868;2022-11-23T03:16:55;97548.56;;;0.37;85.06
69911;BME280;63555;49.920;17.868;2022-11-23T03:19:21;97546.88;;;0.36;85.25
69911;BME280;63555;49.920;17.868;2022-11-23T03:21:46;97555.41;;;0.38;85.42
69911;BME280;63555;49.920;17.868;2022-11-23T03:24:11;97550.31;;;0.36;85.38
69911;BME280;63555;49.920;17.868;2022-11-23T03:26:37;97552.16;;;0.34;85.27
69911;BME280;63555;49.920;17.868;2022-11-23T03:29:02;97555.66;;;0.33;85.27
69911;BME280;63555;49.920;17.868;2022-11-23T03:31:27;97553.16;;;0.31;85.19
69911;BME280;63555;49.920;17.868;2022-11-23T03:33:53;97553.16;;;0.31;85.44
69911;BME280;63555;49.920;17.868;2022-11-23T03:36:18;97546.22;;;0.32;85.37
69911;BME280;63555;49.920;17.868;2022-11-23T03:38:43;97541.03;;;0.32;85.46
69911;BME280;63555;49.920;17.868;2022-11-23T03:41:09;97538.44;;;0.32;85.50
69911;BME280;63555;49.920;17.868;2022-11-23T03:43:34;97541.78;;;0.34;85.66
69911;BME280;63555;49.920;17.868;2022-11-23T03:45:59;97534.75;;;0.36;85.50
69911;BME280;63555;49.920;17.868;2022-11-23T03:48:25;97536.34;;;0.39;85.65
69911;BME280;63555;49.920;17.868;2022-11-23T03:50:50;97531.91;;;0.41;85.59
69911;BME280;63555;49.920;17.868;2022-11-23T03:53:16;97530.06;;;0.43;85.58
69911;BME280;63555;49.920;17.868;2022-11-23T03:55:41;97533.41;;;0.45;85.64
69911;BME280;63555;49.920;17.868;2022-11-23T03:58:06;97538.59;;;0.45;85.40
69911;BME280;63555;49.920;17.868;2022-11-23T04:00:32;97529.06;;;0.45;85.16
69911;BME280;63555;49.920;17.868;2022-11-23T04:02:58;97535.16;;;0.44;85.31
69911;BME280;63555;49.920;17.868;2022-11-23T04:05:23;97532.59;;;0.44;85.53
69911;BME280;63555;49.920;17.868;2022-11-23T04:07:49;97537.78;;;0.44;85.27
69911;BME280;63555;49.920;17.868;2022-11-23T04:10:15;97532.59;;;0.44;85.37
69911;BME280;63555;49.920;17.868;2022-11-23T04:12:41;97536.94;;;0.44;85.31
69911;BME280;63555;49.920;17.868;2022-11-23T04:15:07;97537.94;;;0.41;85.17
69911;BME280;63555;49.920;17.868;2022-11-23T04:17:32;97536.34;;;0.39;85.13
69911;BME280;63555;49.920;17.868;2022-11-23T04:19:57;97526.22;;;0.34;85.07
69911;BME280;63555;49.920;17.868;2022-11-23T04:22:23;97529.75;;;0.33;85.32
69911;BME280;63555;49.920;17.868;2022-11-23T04:24:48;97529.81;;;0.31;85.34
69911;BME280;63555;49.920;17.868;2022-11-23T04:27:13;97535.84;;;0.32;85.45
69911;BME280;63555;49.920;17.868;2022-11-23T04:29:39;97534.91;;;0.33;85.34
69911;BME280;63555;49.920;17.868;2022-11-23T04:32:04;97528.91;;;0.32;85.38
69911;BME280;63555;49.920;17.868;2022-11-23T04:34:29;97527.06;;;0.35;85.44
69911;BME280;63555;49.920;17.868;2022-11-23T04:36:55;97540.03;;;0.35;85.44
69911;BME280;63555;49.920;17.868;2022-11-23T04:39:20;97538.28;;;0.35;85.61
69911;BME280;63555;49.920;17.868;2022-11-23T04:41:45;97539.19;;;0.34;85.47
69911;BME280;63555;49.920;17.868;2022-11-23T04:44:11;97547.88;;;0.33;85.32
69911;BME280;63555;49.920;17.868;2022-11-23T04:46:36;97547.97;;;0.31;85.35
69911;BME280;63555;49.920;17.868;2022-11-23T04:49:02;97548.81;;;0.32;85.53
69911;BME280;63555;49.920;17.868;2022-11-23T04:51:28;97546.28;;;0.30;85.46
69911;BME280;63555;49.920;17.868;2022-11-23T04:53:53;97542.78;;;0.31;85.41
69911;BME280;63555;49.920;17.868;2022-11-23T04:56:18;97540.19;;;0.31;85.44
69911;BME280;63555;49.920;17.868;2022-11-23T04:58:44;97543.63;;;0.32;85.21
69911;BME280;63555;49.920;17.868;2022-11-23T05:01:09;97548.81;;;0.32;85.40
69911;BME280;63555;49.920;17.868;2022-11-23T05:03:34;97552.22;;;0.32;85.36
69911;BME280;63555;49.920;17.868;2022-11-23T05:06:01;97542.69;;;0.33;85.67
69911;BME280;63555;49.920;17.868;2022-11-23T05:08:28;97554.56;;;0.37;85.65
69911;BME280;63555;49.920;17.868;2022-11-23T05:10:53;97549.31;;;0.39;85.72
69911;BME280;63555;49.920;17.868;2022-11-23T05:13:18;97548.31;;;0.41;85.56
69911;BME280;63555;49.920;17.868;2022-11-23T05:15:44;97547.31;;;0.44;85.57
69911;BME280;63555;49.920;17.868;2022-11-23T05:18:10;97555.84;;;0.46;85.47
69911;BME280;63555;49.920;17.868;2022-11-23T05:20:36;97556.59;;;0.48;85.49
69911;BME280;63555;49.920;17.868;2022-11-23T05:23:02;97557.44;;;0.48;85.63
69911;BME280;63555;49.920;17.868;2022-11-23T05:25:28;97553.00;;;0.50;85.50
69911;BME280;63555;49.920;17.868;2022-11-23T05:27:54;97554.59;;;0.53;85.34
69911;BME280;63555;49.920;17.868;2022-11-23T05:30:19;97558.75;;;0.55;85.52
69911;BME280;63555;49.920;17.868;2022-11-23T05:32:45;97569.06;;;0.57;85.24
69911;BME280;63555;49.920;17.868;2022-11-23T05:35:11;97570.72;;;0.58;85.39
69911;BME280;63555;49.920;17.868;2022-11-23T05:37:37;97566.38;;;0.58;84.98
69911;BME280;63555;49.920;17.868;2022-11-23T05:40:03;97566.38;;;0.58;85.38
69911;BME280;63555;49.920;17.868;2022-11-23T05:42:29;97573.16;;;0.61;85.41
69911;BME280;63555;49.920;17.868;2022-11-23T05:44:54;97570.56;;;0.61;85.51
69911;BME280;63555;49.920;17.868;2022-11-23T05:47:19;97569.56;;;0.63;85.51
69911;BME280;63555;49.920;17.868;2022-11-23T05:49:45;97570.31;;;0.66;85.70
69911;BME280;63555;49.920;17.868;2022-11-23T05:52:10;97569.38;;;0.67;85.42
69911;BME280;63555;49.920;17.868;2022-11-23T05:54:35;97563.28;;;0.68;85.37
69911;BME280;63555;49.920;17.868;2022-11-23T05:57:01;97560.59;;;0.69;85.37
69911;BME280;63555;49.920;17.868;2022-11-23T05:59:26;97571.66;;;0.73;85.45
69911;BME280;63555;49.920;17.868;2022-11-23T06:01:53;97561.94;;;0.76;85.50
69911;BME280;63555;49.920;17.868;2022-11-23T06:04:18;97561.75;;;0.79;85.20
69911;BME280;63555;49.920;17.868;2022-11-23T06:06:43;97560.75;;;0.82;85.68
69911;BME280;63555;49.920;17.868;2022-11-23T06:09:09;97554.56;;;0.84;85.54
69911;BME280;63555;49.920;17.868;2022-11-23T06:11:35;97542.34;;;0.86;85.11
69911;BME280;63555;49.920;17.868;2022-11-23T06:14:00;97544.78;;;0.89;85.53
69911;BME280;63555;49.920;17.868;2022-11-23T06:16:26;97555.00;;;0.92;85.11
69911;BME280;63555;49.920;17.868;2022-11-23T06:18:51;97572.06;;;0.97;85.31
69911;BME280;63555;49.920;17.868;2022-11-23T06:21:17;97577.91;;;1.00;85.11
69911;BME280;63555;49.920;17.868;2022-11-23T06:23:43;97583.94;;;1.01;85.21
69911;BME280;63555;49.920;17.868;2022-11-23T06:26:10;97602.88;;;1.03;85.14
69911;BME280;63555;49.920;17.868;2022-11-23T06:28:35;97602.88;;;1.03;85.28
69911;BME280;63555;49.920;17.868;2022-11-23T06:31:03;97604.63;;;1.02;85.01
69911;BME280;63555;49.920;17.868;2022-11-23T06:33:29;97601.94;;;1.04;84.84
69911;BME280;63555;49.920;17.868;2022-11-23T06:35:56;97610.47;;;1.06;85.13
69911;BME280;63555;49.920;17.868;2022-11-23T06:38:23;97613.81;;;1.08;85.14
69911;BME280;63555;49.920;17.868;2022-11-23T06:40:48;97609.31;;;1.11;85.55
69911;BME280;63555;49.920;17.868;2022-11-23T06:43:14;97595.31;;;1.14;84.90
69911;BME280;63555;49.920;17.868;2022-11-23T06:45:39;97596.91;;;1.16;85.44
69911;BME280;63555;49.920;17.868;2022-11-23T06:48:04;97601.09;;;1.19;85.04
69911;BME280;63555;49.920;17.868;2022-11-23T06:50:30;97604.44;;;1.21;85.21
69911;BME280;63555;49.920;17.868;2022-11-23T06:52:56;97599.06;;;1.24;84.81
69911;BME280;63555;49.920;17.868;2022-11-23T06:55:23;97594.53;;;1.27;84.92
69911;BME280;63555;49.920;17.868;2022-11-23T06:57:48;97604.81;;;1.29;84.81
69911;BME280;63555;49.920;17.868;2022-11-23T07:00:14;97609.00;;;1.32;84.58
69911;BME280;63555;49.920;17.868;2022-11-23T07:02:40;97612.34;;;1.34;84.97
69911;BME280;63555;49.920;17.868;2022-11-23T07:05:05;97614.78;;;1.37;85.02
69911;BME280;63555;49.920;17.868;2022-11-23T07:07:31;97609.50;;;1.38;85.28
69911;BME280;63555;49.920;17.868;2022-11-23T07:09:56;97611.81;;;1.43;84.82
69911;BME280;63555;49.920;17.868;2022-11-23T07:12:22;97617.69;;;1.46;84.69
69911;BME280;63555;49.920;17.868;2022-11-23T07:14:47;97622.78;;;1.48;84.93
69911;BME280;63555;49.920;17.868;2022-11-23T07:17:12;97627.91;;;1.49;84.57
69911;BME280;63555;49.920;17.868;2022-11-23T07:19:38;97623.38;;;1.53;85.04
69911;BME280;63555;49.920;17.868;2022-11-23T07:22:03;97639.69;;;1.55;84.88
69911;BME280;63555;49.920;17.868;2022-11-23T07:24:29;97640.28;;;1.60;84.59
69911;BME280;63555;49.920;17.868;2022-11-23T07:26:54;97632.38;;;1.62;84.96
69911;BME280;63555;49.920;17.868;2022-11-23T07:29:19;97630.44;;;1.65;84.80
69911;BME280;63555;49.920;17.868;2022-11-23T07:31:45;97629.44;;;1.68;84.51
69911;BME280;63555;49.920;17.868;2022-11-23T07:34:10;97620.63;;;1.70;84.46
69911;BME280;63555;49.920;17.868;2022-11-23T07:36:36;97620.53;;;1.72;85.01
69911;BME280;63555;49.920;17.868;2022-11-23T07:39:02;97618.72;;;1.74;84.21
69911;BME280;63555;49.920;17.868;2022-11-23T07:41:27;97605.63;;;1.75;84.64
69911;BME280;63555;49.920;17.868;2022-11-23T07:43:53;97604.72;;;1.76;84.31
69911;BME280;63555;49.920;17.868;2022-11-23T07:46:19;97600.44;;;1.75;84.59
69911;BME280;63555;49.920;17.868;2022-11-23T07:48:44;97599.59;;;1.75;84.32
69911;BME280;63555;49.920;17.868;2022-11-23T07:51:09;97604.84;;;1.73;84.49
69911;BME280;63555;49.920;17.868;2022-11-23T07:53:35;97614.41;;;1.73;83.84
69911;BME280;63555;49.920;17.868;2022-11-23T07:56:00;97619.59;;;1.73;84.28
69911;BME280;63555;49.920;17.868;2022-11-23T07:58:26;97628.19;;;1.75;83.99
69911;BME280;63555;49.920;17.868;2022-11-23T08:00:52;97640.16;;;1.77;83.97
69911;BME280;63555;49.920;17.868;2022-11-23T08:03:17;97631.44;;;1.78;83.92
69911;BME280;63555;49.920;17.868;2022-11-23T08:05:43;97627.09;;;1.79;83.99
69911;BME280;63555;49.920;17.868;2022-11-23T08:08:08;97619.19;;;1.80;83.84
69911;BME280;63555;49.920;17.868;2022-11-23T08:10:34;97625.97;;;1.83;84.53
69911;BME280;63555;49.920;17.868;2022-11-23T08:13:02;97625.78;;;1.86;83.90
69911;BME280;63555;49.920;17.868;2022-11-23T08:15:28;97623.00;;;1.89;83.71
69911;BME280;63555;49.920;17.868;2022-11-23T08:17:55;97623.75;;;1.91;83.53
69911;BME280;63555;49.920;17.868;2022-11-23T08:20:20;97630.53;;;1.94;84.30
69911;BME280;63555;49.920;17.868;2022-11-23T08:22:45;97634.72;;;1.96;83.72
69911;BME280;63555;49.920;17.868;2022-11-23T08:25:11;97632.78;;;2.00;84.47
69911;BME280;63555;49.920;17.868;2022-11-23T08:27:36;97629.91;;;2.04;83.67
69911;BME280;63555;49.920;17.868;2022-11-23T08:30:02;97626.94;;;2.10;83.62
69911;BME280;63555;49.920;17.868;2022-11-23T08:32:27;97626.56;;;2.16;84.01
69911;BME280;63555;49.920;17.868;2022-11-23T08:34:53;97626.94;;;2.24;84.27
69911;BME280;63555;49.920;17.868;2022-11-23T08:37:18;97628.34;;;2.30;83.95
69911;BME280;63555;49.920;17.868;2022-11-23T08:39:43;97621.09;;;2.35;83.31
69911;BME280;63555;49.920;17.868;2022-11-23T08:42:09;97624.25;;;2.40;83.67
69911;BME280;63555;49.920;17.868;2022-11-23T08:44:34;97615.41;;;2.43;83.16
69911;BME280;63555;49.920;17.868;2022-11-23T08:46:59;97616.91;;;2.47;83.26
69911;BME280;63555;49.920;17.868;2022-11-23T08:49:25;97616.81;;;2.48;82.68
69911;BME280;63555;49.920;17.868;2022-11-23T08:51:50;97612.53;;;2.47;83.36
69911;BME280;63555;49.920;17.868;2022-11-23T08:54:16;97614.22;;;2.48;83.13
69911;BME280;63555;49.920;17.868;2022-11-23T08:56:41;97609.00;;;2.48;82.63
69911;BME280;63555;49.920;17.868;2022-11-23T08:59:07;97611.59;;;2.48;83.53
69911;BME280;63555;49.920;17.868;2022-11-23T09:01:33;97612.44;;;2.49;83.34
69911;BME280;63555;49.920;17.868;2022-11-23T09:03:58;97614.41;;;2.45;83.25
69911;BME280;63555;49.920;17.868;2022-11-23T09:06:23;97605.00;;;2.43;82.65
69911;BME280;63555;49.920;17.868;2022-11-23T09:08:54;97604.00;;;2.45;83.38
69911;BME280;63555;49.920;17.868;2022-11-23T09:11:19;97605.38;;;2.51;83.17
69911;BME280;63555;49.920;17.868;2022-11-23T09:13:44;97605.75;;;2.59;83.08
69911;BME280;63555;49.920;17.868;2022-11-23T09:16:10;97602.59;;;2.68;82.71
69911;BME280;63555;49.920;17.868;2022-11-23T09:18:35;97599.41;;;2.77;83.20
69911;BME280;63555;49.920;17.868;2022-11-23T09:21:03;97587.38;;;2.89;83.25
69911;BME280;63555;49.920;17.868;2022-11-23T09:23:28;97586.50;;;3.03;82.82
69911;BME280;63555;49.920;17.868;2022-11-23T09:25:59;97588.31;;;3.15;82.93
69911;BME280;63555;49.920;17.868;2022-11-23T09:28:25;97584.91;;;3.27;82.74
69911;BME280;63555;49.920;17.868;2022-11-23T09:30:53;97587.75;;;3.37;82.07
69911;BME280;63555;49.920;17.868;2022-11-23T09:33:18;97588.88;;;3.47;82.17
69911;BME280;63555;49.920;17.868;2022-11-23T09:35:44;97590.66;;;3.59;82.12
69911;BME280;63555;49.920;17.868;2022-11-23T09:38:09;97579.50;;;3.70;81.56
69911;BME280;63555;49.920;17.868;2022-11-23T09:40:37;97566.59;;;3.81;81.81
69911;BME280;63555;49.920;17.868;2022-11-23T09:45:50;97570.56;;;3.99;80.89
69911;BME280;63555;49.920;17.868;2022-11-23T09:48:42;97558.88;;;4.05;80.83
69911;BME280;63555;49.920;17.868;2022-11-23T09:51:20;97557.81;;;4.07;80.19
69911;BME280;63555;49.920;17.868;2022-11-23T09:53:55;97563.88;;;4.08;80.38
69911;BME280;63555;49.920;17.868;2022-11-23T09:56:28;97573.25;;;4.10;80.20
69911;BME280;63555;49.920;17.868;2022-11-23T09:58:56;97563.66;;;4.11;80.11
69911;BME280;63555;49.920;17.868;2022-11-23T10:01:23;97560.84;;;4.14;80.22
69911;BME280;63555;49.920;17.868;2022-11-23T10:03:49;97558.13;;;4.15;79.59
69911;BME280;63555;49.920;17.868;2022-11-23T10:06:29;97562.19;;;4.20;79.74
69911;BME280;63555;49.920;17.868;2022-11-23T10:09:11;97561.16;;;4.22;79.54
69911;BME280;63555;49.920;17.868;2022-11-23T10:20:39;97559.59;;;4.45;79.14
69911;BME280;63555;49.920;17.868;2022-11-23T10:25:56;97557.78;;;4.58;78.91
69911;BME280;63555;49.920;17.868;2022-11-23T10:28:28;97553.28;;;4.60;78.55
69911;BME280;63555;49.920;17.868;2022-11-23T10:31:03;97557.78;;;4.58;78.37
69911;BME280;63555;49.920;17.868;2022-11-23T10:33:40;97557.03;;;4.56;77.98
69911;BME280;63555;49.920;17.868;2022-11-23T10:36:10;97558.09;;;4.54;78.38
69911;BME280;63555;49.920;17.868;2022-11-23T10:38:37;97556.44;;;4.53;78.15
69911;BME280;63555;49.920;17.868;2022-11-23T10:41:09;97552.03;;;4.53;78.21
69911;BME280;63555;49.920;17.868;2022-11-23T10:46:27;97549.84;;;4.60;78.20
69911;BME280;63555;49.920;17.868;2022-11-23T10:48:55;97547.63;;;4.66;77.98
69911;BME280;63555;49.920;17.868;2022-11-23T10:51:32;97531.41;;;4.74;78.15
69911;BME280;63555;49.920;17.868;2022-11-23T10:54:03;97536.91;;;4.82;77.90
69911;BME280;63555;49.920;17.868;2022-11-23T10:56:29;97542.53;;;4.89;77.51
69911;BME280;63555;49.920;17.868;2022-11-23T10:58:56;97544.81;;;4.93;77.29
69911;BME280;63555;49.920;17.868;2022-11-23T11:01:26;97533.19;;;4.97;77.59
69911;BME280;63555;49.920;17.868;2022-11-23T11:03:55;97534.53;;;5.03;76.87
69911;BME280;63555;49.920;17.868;2022-11-23T11:06:29;97529.06;;;5.06;76.81
69911;BME280;63555;49.920;17.868;2022-11-23T11:08:59;97534.06;;;5.09;76.96
69911;BME280;63555;49.920;17.868;2022-11-23T11:11:28;97533.84;;;5.12;76.35
69911;BME280;63555;49.920;17.868;2022-11-23T11:14:21;97531.00;;;5.15;76.54
69911;BME280;63555;49.920;17.868;2022-11-23T11:16:58;97531.84;;;5.16;76.42
69911;BME280;63555;49.920;17.868;2022-11-23T11:22:00;97525.44;;;5.20;76.21
69911;BME280;63555;49.920;17.868;2022-11-23T11:24:36;97520.84;;;5.23;76.34
69911;BME280;63555;49.920;17.868;2022-11-23T11:27:05;97527.28;;;5.30;76.08
69911;BME280;63555;49.920;17.868;2022-11-23T11:29:38;97522.34;;;5.38;75.69
69911;BME280;63555;49.920;17.868;2022-11-23T11:32:21;97525.44;;;5.43;75.88
69911;BME280;63555;49.920;17.868;2022-11-23T11:34:54;97526.03;;;5.47;75.59
69911;BME280;63555;49.920;17.868;2022-11-23T11:37:54;97529.38;;;5.49;75.43
69911;BME280;63555;49.920;17.868;2022-11-23T11:40:46;97523.19;;;5.50;74.74
69911;BME280;63555;49.920;17.868;2022-11-23T11:43:26;97523.06;;;5.52;74.86
69911;BME280;63555;49.920;17.868;2022-11-23T11:46:01;97511.44;;;5.56;74.86
69911;BME280;63555;49.920;17.868;2022-11-23T11:48:53;97511.09;;;5.60;74.87
69911;BME280;63555;49.920;17.868;2022-11-23T11:51:24;97518.81;;;5.62;74.98
69911;BME280;63555;49.920;17.868;2022-11-23T11:56:48;97527.81;;;5.47;73.69
69911;BME280;63555;49.920;17.868;2022-11-23T11:59:47;97519.91;;;5.24;74.01
69911;BME280;63555;49.920;17.868;2022-11-23T12:02:38;97525.00;;;5.02;74.24
69911;BME280;63555;49.920;17.868;2022-11-23T12:05:18;97529.91;;;4.83;74.27
69911;BME280;63555;49.920;17.868;2022-11-23T12:08:12;97531.44;;;4.61;74.60
69911;BME280;63555;49.920;17.868;2022-11-23T12:10:46;97535.25;;;4.44;74.77
69911;BME280;63555;49.920;17.868;2022-11-23T12:13:15;97530.34;;;4.27;74.87
69911;BME280;63555;49.920;17.868;2022-11-23T12:15:45;97535.81;;;4.11;74.75
69911;BME280;63555;49.920;17.868;2022-11-23T12:18:27;97544.69;;;3.96;75.24
69911;BME280;63555;49.920;17.868;2022-11-23T12:26:33;97554.16;;;3.59;75.40
69911;BME280;63555;49.920;17.868;2022-11-23T12:35:16;97552.44;;;3.45;76.01
69911;BME280;63555;49.920;17.868;2022-11-23T12:38:38;97557.66;;;3.45;75.81
69911;BME280;63555;49.920;17.868;2022-11-23T12:43:21;97554.78;;;3.50;76.23
69911;BME280;63555;49.920;17.868;2022-11-23T12:54:11;97569.75;;;3.46;76.29
69911;BME280;63555;49.920;17.868;2022-11-23T12:59:14;97558.44;;;3.47;75.95
69911;BME280;63555;49.920;17.868;2022-11-23T13:01:45;97562.50;;;3.51;76.32
69911;BME280;63555;49.920;17.868;2022-11-23T13:07:24;97559.78;;;3.53;75.92
69911;BME280;63555;49.920;17.868;2022-11-23T13:10:33;97559.69;;;3.55;75.88
69911;BME280;63555;49.920;17.868;2022-11-23T13:21:45;97573.50;;;3.42;75.51
69911;BME280;63555;49.920;17.868;2022-11-23T13:24:26;97580.78;;;3.37;75.53
69911;BME280;63555;49.920;17.868;2022-11-23T13:38:16;97590.38;;;3.10;76.43
69911;BME280;63555;49.920;17.868;2022-11-23T13:40:44;97582.97;;;3.04;76.12
69911;BME280;63555;49.920;17.868;2022-11-23T13:43:30;97586.59;;;3.01;76.73
69911;BME280;63555;49.920;17.868;2022-11-23T13:46:21;97578.91;;;3.00;76.65
69911;BME280;63555;49.920;17.868;2022-11-23T13:48:50;97583.38;;;2.98;76.80
69911;BME280;63555;49.920;17.868;2022-11-23T13:51:25;97584.28;;;2.97;76.20
69911;BME280;63555;49.920;17.868;2022-11-23T13:54:19;97583.47;;;2.96;76.92
69911;BME280;63555;49.920;17.868;2022-11-23T13:56:46;97588.66;;;2.96;76.21
69911;BME280;63555;49.920;17.868;2022-11-23T14:04:38;97579.00;;;2.98;76.35
69911;BME280;63555;49.920;17.868;2022-11-23T14:07:12;97571.91;;;3.00;76.59
69911;BME280;63555;49.920;17.868;2022-11-23T14:10:05;97566.41;;;3.05;77.34
69911;BME280;63555;49.920;17.868;2022-11-23T14:12:59;97575.69;;;3.09;77.26
69911;BME280;63555;49.920;17.868;2022-11-23T14:15:37;97573.00;;;3.10;77.19
69911;BME280;63555;49.920;17.868;2022-11-23T14:20:43;97584.16;;;3.12;77.23
69911;BME280;63555;49.920;17.868;2022-11-23T14:42:59;97588.13;;;2.91;76.90
69911;BME280;63555;49.920;17.868;2022-11-23T14:45:34;97584.88;;;2.87;77.59
69911;BME280;63555;49.920;17.868;2022-11-23T14:48:19;97590.19;;;2.86;77.27
69911;BME280;63555;49.920;17.868;2022-11-23T14:50:55;97592.16;;;2.82;78.06